sensor_id;sensor_type;location;lat;lon;timestamp;P1;durP1;ratioP1;P2;durP2;ratioP2
4138;SDS011;2083;51.034;6.996;2022-08-14T00:02:12;8.80;;;6.83;;
4138;SDS011;2083;51.034;6.996;2022-08-14T00:04:38;7.00;;;6.40;;
4138;SDS011;2083;51.034;6.996;2022-08-14T00:07:04;7.13;;;6.17;;
4138;SDS011;2083;51.034;6.996;2022-08-14T00:09:30;7.77;;;7.20;;
4138;SDS011;2083;51.034;6.996;2022-08-14T00:11:57;7.40;;;6.73;;
4138;SDS011;2083;51.034;6.996;2022-08-14T00:14:23;7.07;;;6.47;;
4138;SDS011;2083;51.034;6.996;2022-08-14T00:16:50;6.83;;;6.20;;
4138;SDS011;2083;51.034;6.996;2022-08-14T00:19:17;9.23;;;6.70;;
4138;SDS011;2083;51.034;6.996;2022-08-14T00:21:42;7.40;;;6.70;;
4138;SDS011;2083;51.034;6.996;2022-08-14T00:24:08;9.90;;;6.70;;
4138;SDS011;2083;51.034;6.996;2022-08-14T00:26:34;7.80;;;6.93;;
4138;SDS011;2083;51.034;6.996;2022-08-14T00:29:00;7.03;;;6.37;;
4138;SDS011;2083;51.034;6.996;2022-08-14T00:31:26;8.03;;;7.33;;
4138;SDS011;2083;51.034;6.996;2022-08-14T00:33:54;7.70;;;6.90;;
4138;SDS011;2083;51.034;6.996;2022-08-14T00:36:21;7.80;;;7.20;;
4138;SDS011;2083;51.034;6.996;2022-08-14T00:38:47;7.40;;;6.80;;
4138;SDS011;2083;51.034;6.996;2022-08-14T00:41:13;9.00;;;7.50;;
4138;SDS011;2083;51.034;6.996;2022-08-14T00:43:39;7.97;;;7.30;;
4138;SDS011;2083;51.034;6.996;2022-08-14T00:46:07;8.47;;;7.77;;
4138;SDS011;2083;51.034;6.996;2022-08-14T00:48:33;8.63;;;7.93;;
4138;SDS011;2083;51.034;6.996;2022-08-14T00:50:59;13.07;;;7.00;;
4138;SDS011;2083;51.034;6.996;2022-08-14T00:53:25;9.23;;;7.70;;
4138;SDS011;2083;51.034;6.996;2022-08-14T00:55:52;7.27;;;6.67;;
4138;SDS011;2083;51.034;6.996;2022-08-14T00:58:21;16.80;;;8.10;;
4138;SDS011;2083;51.034;6.996;2022-08-14T01:01:00;8.67;;;7.97;;
4138;SDS011;2083;51.034;6.996;2022-08-14T01:03:27;8.47;;;7.67;;
4138;SDS011;2083;51.034;6.996;2022-08-14T01:05:54;12.33;;;8.03;;
4138;SDS011;2083;51.034;6.996;2022-08-14T01:08:21;7.73;;;6.97;;
4138;SDS011;2083;51.034;6.996;2022-08-14T01:10:47;9.60;;;8.80;;
4138;SDS011;2083;51.034;6.996;2022-08-14T01:13:18;8.87;;;8.07;;
4138;SDS011;2083;51.034;6.996;2022-08-14T01:15:45;8.97;;;8.17;;
4138;SDS011;2083;51.034;6.996;2022-08-14T01:18:12;8.20;;;7.50;;
4138;SDS011;2083;51.034;6.996;2022-08-14T01:20:57;8.80;;;8.10;;
4138;SDS011;2083;51.034;6.996;2022-08-14T01:23:40;9.00;;;7.60;;
4138;SDS011;2083;51.034;6.996;2022-08-14T01:26:06;9.63;;;8.10;;
4138;SDS011;2083;51.034;6.996;2022-08-14T01:28:32;8.87;;;8.17;;
4138;SDS011;2083;51.034;6.996;2022-08-14T01:31:02;9.63;;;8.43;;
4138;SDS011;2083;51.034;6.996;2022-08-14T01:33:30;8.97;;;8.27;;
4138;SDS011;2083;51.034;6.996;2022-08-14T01:35:56;13.20;;;8.53;;
4138;SDS011;2083;51.034;6.996;2022-08-14T01:38:24;8.30;;;7.60;;
4138;SDS011;2083;51.034;6.996;2022-08-14T01:40:50;10.30;;;8.67;;
4138;SDS011;2083;51.034;6.996;2022-08-14T01:43:16;10.13;;;9.13;;
4138;SDS011;2083;51.034;6.996;2022-08-14T01:45:43;10.60;;;8.37;;
4138;SDS011;2083;51.034;6.996;2022-08-14T01:48:09;12.10;;;8.67;;
4138;SDS011;2083;51.034;6.996;2022-08-14T01:50:36;10.40;;;9.30;;
4138;SDS011;2083;51.034;6.996;2022-08-14T01:53:02;10.40;;;9.30;;
4138;SDS011;2083;51.034;6.996;2022-08-14T01:55:28;11.57;;;8.60;;
4138;SDS011;2083;51.034;6.996;2022-08-14T01:57:55;8.67;;;7.87;;
4138;SDS011;2083;51.034;6.996;2022-08-14T02:00:22;11.63;;;8.50;;
4138;SDS011;2083;51.034;6.996;2022-08-14T02:02:48;15.13;;;8.50;;
4138;SDS011;2083;51.034;6.996;2022-08-14T02:05:14;9.23;;;8.33;;
4138;SDS011;2083;51.034;6.996;2022-08-14T02:07:41;9.30;;;8.40;;
4138;SDS011;2083;51.034;6.996;2022-08-14T02:10:11;10.30;;;8.97;;
4138;SDS011;2083;51.034;6.996;2022-08-14T02:12:37;11.43;;;8.23;;
4138;SDS011;2083;51.034;6.996;2022-08-14T02:15:05;9.50;;;8.70;;
4138;SDS011;2083;51.034;6.996;2022-08-14T02:17:33;12.20;;;9.03;;
4138;SDS011;2083;51.034;6.996;2022-08-14T02:19:59;12.83;;;9.47;;
4138;SDS011;2083;51.034;6.996;2022-08-14T02:22:25;9.43;;;8.53;;
4138;SDS011;2083;51.034;6.996;2022-08-14T02:24:51;9.27;;;8.47;;
4138;SDS011;2083;51.034;6.996;2022-08-14T02:27:17;13.40;;;8.80;;
4138;SDS011;2083;51.034;6.996;2022-08-14T02:29:44;10.97;;;8.67;;
4138;SDS011;2083;51.034;6.996;2022-08-14T02:32:10;10.27;;;9.37;;
4138;SDS011;2083;51.034;6.996;2022-08-14T02:34:37;11.10;;;10.00;;
4138;SDS011;2083;51.034;6.996;2022-08-14T02:37:04;10.60;;;9.70;;
4138;SDS011;2083;51.034;6.996;2022-08-14T02:39:34;10.90;;;9.80;;
4138;SDS011;2083;51.034;6.996;2022-08-14T02:42:01;10.00;;;7.57;;
4138;SDS011;2083;51.034;6.996;2022-08-14T02:44:27;10.00;;;9.20;;
4138;SDS011;2083;51.034;6.996;2022-08-14T02:46:53;9.77;;;8.97;;
4138;SDS011;2083;51.034;6.996;2022-08-14T02:49:22;9.40;;;8.50;;
4138;SDS011;2083;51.034;6.996;2022-08-14T02:51:51;10.20;;;9.17;;
4138;SDS011;2083;51.034;6.996;2022-08-14T02:54:17;12.20;;;8.70;;
4138;SDS011;2083;51.034;6.996;2022-08-14T02:56:44;11.23;;;9.93;;
4138;SDS011;2083;51.034;6.996;2022-08-14T02:59:10;10.93;;;9.40;;
4138;SDS011;2083;51.034;6.996;2022-08-14T03:01:38;9.70;;;8.90;;
4138;SDS011;2083;51.034;6.996;2022-08-14T03:04:04;9.97;;;9.03;;
4138;SDS011;2083;51.034;6.996;2022-08-14T03:06:31;10.83;;;9.73;;
4138;SDS011;2083;51.034;6.996;2022-08-14T03:08:57;12.80;;;9.03;;
4138;SDS011;2083;51.034;6.996;2022-08-14T03:11:24;9.27;;;8.47;;
4138;SDS011;2083;51.034;6.996;2022-08-14T03:13:50;11.03;;;9.73;;
4138;SDS011;2083;51.034;6.996;2022-08-14T03:16:18;10.10;;;9.30;;
4138;SDS011;2083;51.034;6.996;2022-08-14T03:18:45;10.90;;;9.27;;
4138;SDS011;2083;51.034;6.996;2022-08-14T03:21:13;17.03;;;10.00;;
4138;SDS011;2083;51.034;6.996;2022-08-14T03:23:40;12.70;;;10.23;;
4138;SDS011;2083;51.034;6.996;2022-08-14T03:26:08;9.90;;;8.90;;
4138;SDS011;2083;51.034;6.996;2022-08-14T03:28:34;10.60;;;9.80;;
4138;SDS011;2083;51.034;6.996;2022-08-14T03:31:02;10.27;;;9.30;;
4138;SDS011;2083;51.034;6.996;2022-08-14T03:33:29;15.23;;;9.30;;
4138;SDS011;2083;51.034;6.996;2022-08-14T03:35:55;11.80;;;10.60;;
4138;SDS011;2083;51.034;6.996;2022-08-14T03:38:23;13.00;;;10.13;;
4138;SDS011;2083;51.034;6.996;2022-08-14T03:40:49;11.00;;;9.53;;
4138;SDS011;2083;51.034;6.996;2022-08-14T03:43:15;11.00;;;9.90;;
4138;SDS011;2083;51.034;6.996;2022-08-14T03:45:41;11.40;;;10.00;;
4138;SDS011;2083;51.034;6.996;2022-08-14T03:48:12;12.37;;;10.43;;
4138;SDS011;2083;51.034;6.996;2022-08-14T03:50:42;12.27;;;11.00;;
4138;SDS011;2083;51.034;6.996;2022-08-14T03:53:08;11.47;;;10.20;;
4138;SDS011;2083;51.034;6.996;2022-08-14T03:55:35;12.50;;;11.23;;
4138;SDS011;2083;51.034;6.996;2022-08-14T03:58:02;11.33;;;10.13;;
4138;SDS011;2083;51.034;6.996;2022-08-14T04:00:28;10.30;;;9.40;;
4138;SDS011;2083;51.034;6.996;2022-08-14T04:02:54;10.63;;;9.63;;
4138;SDS011;2083;51.034;6.996;2022-08-14T04:05:20;11.97;;;10.57;;
4138;SDS011;2083;51.034;6.996;2022-08-14T04:07:46;11.23;;;10.20;;
4138;SDS011;2083;51.034;6.996;2022-08-14T04:10:12;13.33;;;11.87;;
4138;SDS011;2083;51.034;6.996;2022-08-14T04:12:38;11.73;;;10.63;;
4138;SDS011;2083;51.034;6.996;2022-08-14T04:15:05;12.43;;;10.90;;
4138;SDS011;2083;51.034;6.996;2022-08-14T04:17:31;16.50;;;11.40;;
4138;SDS011;2083;51.034;6.996;2022-08-14T04:19:58;13.03;;;11.60;;
4138;SDS011;2083;51.034;6.996;2022-08-14T04:22:28;12.73;;;11.53;;
4138;SDS011;2083;51.034;6.996;2022-08-14T04:24:55;18.37;;;12.20;;
4138;SDS011;2083;51.034;6.996;2022-08-14T04:27:21;12.73;;;11.07;;
4138;SDS011;2083;51.034;6.996;2022-08-14T04:29:47;12.70;;;11.40;;
4138;SDS011;2083;51.034;6.996;2022-08-14T04:32:13;15.40;;;11.47;;
4138;SDS011;2083;51.034;6.996;2022-08-14T04:34:39;10.87;;;9.87;;
4138;SDS011;2083;51.034;6.996;2022-08-14T04:37:06;12.80;;;11.50;;
4138;SDS011;2083;51.034;6.996;2022-08-14T04:39:51;12.70;;;11.00;;
4138;SDS011;2083;51.034;6.996;2022-08-14T04:42:36;18.00;;;12.00;;
4138;SDS011;2083;51.034;6.996;2022-08-14T04:45:21;11.83;;;10.40;;
4138;SDS011;2083;51.034;6.996;2022-08-14T04:47:48;13.87;;;11.17;;
4138;SDS011;2083;51.034;6.996;2022-08-14T04:50:33;12.57;;;10.93;;
4138;SDS011;2083;51.034;6.996;2022-08-14T04:53:00;11.33;;;10.30;;
4138;SDS011;2083;51.034;6.996;2022-08-14T04:55:26;11.67;;;10.67;;
4138;SDS011;2083;51.034;6.996;2022-08-14T04:57:52;12.60;;;11.20;;
4138;SDS011;2083;51.034;6.996;2022-08-14T05:00:18;14.57;;;10.87;;
4138;SDS011;2083;51.034;6.996;2022-08-14T05:02:46;12.93;;;10.67;;
4138;SDS011;2083;51.034;6.996;2022-08-14T05:05:11;20.73;;;11.13;;
4138;SDS011;2083;51.034;6.996;2022-08-14T05:07:37;22.03;;;11.47;;
4138;SDS011;2083;51.034;6.996;2022-08-14T05:10:04;11.43;;;10.23;;
4138;SDS011;2083;51.034;6.996;2022-08-14T05:12:31;13.70;;;11.10;;
4138;SDS011;2083;51.034;6.996;2022-08-14T05:14:56;13.87;;;10.57;;
4138;SDS011;2083;51.034;6.996;2022-08-14T05:17:23;11.57;;;10.57;;
4138;SDS011;2083;51.034;6.996;2022-08-14T05:19:52;13.17;;;10.67;;
4138;SDS011;2083;51.034;6.996;2022-08-14T05:22:18;11.40;;;10.40;;
4138;SDS011;2083;51.034;6.996;2022-08-14T05:24:46;10.33;;;9.27;;
4138;SDS011;2083;51.034;6.996;2022-08-14T05:27:13;12.17;;;9.70;;
4138;SDS011;2083;51.034;6.996;2022-08-14T05:29:39;10.43;;;9.50;;
4138;SDS011;2083;51.034;6.996;2022-08-14T05:32:08;9.40;;;8.60;;
4138;SDS011;2083;51.034;6.996;2022-08-14T05:34:34;9.80;;;8.97;;
4138;SDS011;2083;51.034;6.996;2022-08-14T05:37:00;10.50;;;9.70;;
4138;SDS011;2083;51.034;6.996;2022-08-14T05:39:27;9.27;;;7.57;;
4138;SDS011;2083;51.034;6.996;2022-08-14T05:41:53;1.57;;;1.00;;
4138;SDS011;2083;51.034;6.996;2022-08-14T05:44:20;0.70;;;0.50;;
4138;SDS011;2083;51.034;6.996;2022-08-14T05:46:46;1.13;;;1.13;;
4138;SDS011;2083;51.034;6.996;2022-08-14T05:49:12;0.70;;;0.67;;
4138;SDS011;2083;51.034;6.996;2022-08-14T05:51:39;0.70;;;0.43;;
4138;SDS011;2083;51.034;6.996;2022-08-14T05:54:05;1.53;;;1.43;;
4138;SDS011;2083;51.034;6.996;2022-08-14T05:56:31;3.10;;;2.90;;
4138;SDS011;2083;51.034;6.996;2022-08-14T05:58:58;5.90;;;4.17;;
4138;SDS011;2083;51.034;6.996;2022-08-14T06:01:24;8.70;;;8.00;;
4138;SDS011;2083;51.034;6.996;2022-08-14T06:03:50;10.10;;;9.20;;
4138;SDS011;2083;51.034;6.996;2022-08-14T06:06:16;9.87;;;8.87;;
4138;SDS011;2083;51.034;6.996;2022-08-14T06:08:42;9.63;;;8.70;;
4138;SDS011;2083;51.034;6.996;2022-08-14T06:11:09;9.97;;;8.90;;
4138;SDS011;2083;51.034;6.996;2022-08-14T06:13:36;9.43;;;8.60;;
4138;SDS011;2083;51.034;6.996;2022-08-14T06:16:02;9.40;;;8.67;;
4138;SDS011;2083;51.034;6.996;2022-08-14T06:18:28;9.27;;;8.40;;
4138;SDS011;2083;51.034;6.996;2022-08-14T06:20:55;8.67;;;7.97;;
4138;SDS011;2083;51.034;6.996;2022-08-14T06:23:21;28.33;;;8.40;;
4138;SDS011;2083;51.034;6.996;2022-08-14T06:25:47;8.00;;;7.50;;
4138;SDS011;2083;51.034;6.996;2022-08-14T06:28:20;7.27;;;6.77;;
4138;SDS011;2083;51.034;6.996;2022-08-14T06:30:46;8.27;;;7.77;;
4138;SDS011;2083;51.034;6.996;2022-08-14T06:33:13;7.93;;;7.30;;
4138;SDS011;2083;51.034;6.996;2022-08-14T06:35:39;9.10;;;8.30;;
4138;SDS011;2083;51.034;6.996;2022-08-14T06:38:05;8.03;;;7.33;;
4138;SDS011;2083;51.034;6.996;2022-08-14T06:40:32;8.40;;;7.57;;
4138;SDS011;2083;51.034;6.996;2022-08-14T06:43:01;7.10;;;6.70;;
4138;SDS011;2083;51.034;6.996;2022-08-14T06:45:27;7.93;;;7.33;;
4138;SDS011;2083;51.034;6.996;2022-08-14T06:47:53;6.27;;;6.00;;
4138;SDS011;2083;51.034;6.996;2022-08-14T06:50:21;8.10;;;7.70;;
4138;SDS011;2083;51.034;6.996;2022-08-14T06:52:47;7.43;;;6.70;;
4138;SDS011;2083;51.034;6.996;2022-08-14T06:55:14;7.13;;;6.73;;
4138;SDS011;2083;51.034;6.996;2022-08-14T06:57:42;6.80;;;6.23;;
4138;SDS011;2083;51.034;6.996;2022-08-14T07:00:20;7.07;;;6.77;;
4138;SDS011;2083;51.034;6.996;2022-08-14T07:02:46;6.10;;;5.80;;
4138;SDS011;2083;51.034;6.996;2022-08-14T07:05:32;7.00;;;6.30;;
4138;SDS011;2083;51.034;6.996;2022-08-14T07:08:14;8.00;;;6.67;;
4138;SDS011;2083;51.034;6.996;2022-08-14T07:10:41;8.07;;;6.70;;
4138;SDS011;2083;51.034;6.996;2022-08-14T07:13:08;7.60;;;7.20;;
4138;SDS011;2083;51.034;6.996;2022-08-14T07:15:34;7.77;;;7.17;;
4138;SDS011;2083;51.034;6.996;2022-08-14T07:18:00;5.97;;;5.67;;
4138;SDS011;2083;51.034;6.996;2022-08-14T07:20:27;6.07;;;5.83;;
4138;SDS011;2083;51.034;6.996;2022-08-14T07:22:54;5.87;;;5.53;;
4138;SDS011;2083;51.034;6.996;2022-08-14T07:25:23;6.93;;;6.57;;
4138;SDS011;2083;51.034;6.996;2022-08-14T07:27:49;6.80;;;6.40;;
4138;SDS011;2083;51.034;6.996;2022-08-14T07:30:15;6.73;;;6.07;;
4138;SDS011;2083;51.034;6.996;2022-08-14T07:32:41;6.00;;;5.70;;
4138;SDS011;2083;51.034;6.996;2022-08-14T07:35:07;6.10;;;5.83;;
4138;SDS011;2083;51.034;6.996;2022-08-14T07:37:33;6.70;;;6.33;;
4138;SDS011;2083;51.034;6.996;2022-08-14T07:40:00;5.90;;;5.63;;
4138;SDS011;2083;51.034;6.996;2022-08-14T07:42:26;5.87;;;5.57;;
4138;SDS011;2083;51.034;6.996;2022-08-14T07:44:53;7.30;;;6.60;;
4138;SDS011;2083;51.034;6.996;2022-08-14T07:47:19;6.17;;;5.87;;
4138;SDS011;2083;51.034;6.996;2022-08-14T07:50:01;5.83;;;5.63;;
4138;SDS011;2083;51.034;6.996;2022-08-14T07:52:28;6.90;;;6.30;;
4138;SDS011;2083;51.034;6.996;2022-08-14T07:54:54;5.60;;;5.30;;
4138;SDS011;2083;51.034;6.996;2022-08-14T07:57:20;2.50;;;1.93;;
4138;SDS011;2083;51.034;6.996;2022-08-14T07:59:46;6.10;;;5.70;;
4138;SDS011;2083;51.034;6.996;2022-08-14T08:02:13;3.93;;;3.70;;
4138;SDS011;2083;51.034;6.996;2022-08-14T08:04:40;0.50;;;0.30;;
4138;SDS011;2083;51.034;6.996;2022-08-14T08:07:10;2.07;;;1.90;;
4138;SDS011;2083;51.034;6.996;2022-08-14T08:09:36;1.33;;;1.17;;
4138;SDS011;2083;51.034;6.996;2022-08-14T08:12:06;3.13;;;2.83;;
4138;SDS011;2083;51.034;6.996;2022-08-14T08:14:33;0.50;;;0.20;;
4138;SDS011;2083;51.034;6.996;2022-08-14T08:16:59;0.50;;;0.30;;
4138;SDS011;2083;51.034;6.996;2022-08-14T08:19:25;2.90;;;2.60;;
4138;SDS011;2083;51.034;6.996;2022-08-14T08:21:51;1.13;;;0.97;;
4138;SDS011;2083;51.034;6.996;2022-08-14T08:24:18;0.50;;;0.20;;
4138;SDS011;2083;51.034;6.996;2022-08-14T08:26:45;0.57;;;0.37;;
4138;SDS011;2083;51.034;6.996;2022-08-14T08:29:17;0.50;;;0.20;;
4138;SDS011;2083;51.034;6.996;2022-08-14T08:31:49;4.80;;;4.70;;
4138;SDS011;2083;51.034;6.996;2022-08-14T08:34:16;4.80;;;4.60;;
4138;SDS011;2083;51.034;6.996;2022-08-14T08:36:42;4.97;;;4.63;;
4138;SDS011;2083;51.034;6.996;2022-08-14T08:39:09;5.70;;;5.37;;
4138;SDS011;2083;51.034;6.996;2022-08-14T08:41:41;3.30;;;3.10;;
4138;SDS011;2083;51.034;6.996;2022-08-14T08:44:08;5.33;;;4.93;;
4138;SDS011;2083;51.034;6.996;2022-08-14T08:46:34;4.67;;;4.53;;
4138;SDS011;2083;51.034;6.996;2022-08-14T08:49:00;3.70;;;3.60;;
4138;SDS011;2083;51.034;6.996;2022-08-14T08:51:28;3.30;;;3.20;;
4138;SDS011;2083;51.034;6.996;2022-08-14T08:54:04;4.60;;;4.30;;
4138;SDS011;2083;51.034;6.996;2022-08-14T08:59:02;5.20;;;4.90;;
4138;SDS011;2083;51.034;6.996;2022-08-14T09:01:40;4.33;;;4.13;;
4138;SDS011;2083;51.034;6.996;2022-08-14T09:04:06;4.37;;;3.63;;
4138;SDS011;2083;51.034;6.996;2022-08-14T09:06:41;4.37;;;4.07;;
4138;SDS011;2083;51.034;6.996;2022-08-14T09:09:24;4.17;;;4.00;;
4138;SDS011;2083;51.034;6.996;2022-08-14T09:11:50;3.57;;;3.47;;
4138;SDS011;2083;51.034;6.996;2022-08-14T09:14:19;1.43;;;0.87;;
4138;SDS011;2083;51.034;6.996;2022-08-14T09:16:45;0.70;;;0.70;;
4138;SDS011;2083;51.034;6.996;2022-08-14T09:19:11;0.50;;;0.20;;
4138;SDS011;2083;51.034;6.996;2022-08-14T09:21:38;0.50;;;0.27;;
4138;SDS011;2083;51.034;6.996;2022-08-14T09:24:05;0.50;;;0.50;;
4138;SDS011;2083;51.034;6.996;2022-08-14T09:26:31;1.00;;;0.90;;
4138;SDS011;2083;51.034;6.996;2022-08-14T09:28:57;0.67;;;0.50;;
4138;SDS011;2083;51.034;6.996;2022-08-14T09:31:23;0.60;;;0.47;;
4138;SDS011;2083;51.034;6.996;2022-08-14T09:33:57;0.73;;;0.73;;
4138;SDS011;2083;51.034;6.996;2022-08-14T09:39:33;0.77;;;0.77;;
4138;SDS011;2083;51.034;6.996;2022-08-14T09:45:12;0.40;;;0.20;;
4138;SDS011;2083;51.034;6.996;2022-08-14T09:47:40;0.50;;;0.50;;
4138;SDS011;2083;51.034;6.996;2022-08-14T09:50:17;0.50;;;0.40;;
4138;SDS011;2083;51.034;6.996;2022-08-14T09:52:51;0.40;;;0.30;;
4138;SDS011;2083;51.034;6.996;2022-08-14T09:55:17;0.40;;;0.30;;
4138;SDS011;2083;51.034;6.996;2022-08-14T09:57:44;0.40;;;0.30;;
4138;SDS011;2083;51.034;6.996;2022-08-14T10:00:10;0.53;;;0.30;;
4138;SDS011;2083;51.034;6.996;2022-08-14T10:02:50;0.50;;;0.40;;
4138;SDS011;2083;51.034;6.996;2022-08-14T10:05:26;0.50;;;0.30;;
4138;SDS011;2083;51.034;6.996;2022-08-14T10:07:53;1.00;;;1.00;;
4138;SDS011;2083;51.034;6.996;2022-08-14T10:13:01;0.50;;;0.20;;
4138;SDS011;2083;51.034;6.996;2022-08-14T10:15:29;0.90;;;0.57;;
4138;SDS011;2083;51.034;6.996;2022-08-14T10:18:08;0.40;;;0.20;;
4138;SDS011;2083;51.034;6.996;2022-08-14T10:20:36;0.63;;;0.63;;
4138;SDS011;2083;51.034;6.996;2022-08-14T10:23:12;0.50;;;0.30;;
4138;SDS011;2083;51.034;6.996;2022-08-14T10:25:41;0.60;;;0.60;;
4138;SDS011;2083;51.034;6.996;2022-08-14T10:28:08;0.50;;;0.20;;
4138;SDS011;2083;51.034;6.996;2022-08-14T10:30:34;0.90;;;0.60;;
4138;SDS011;2083;51.034;6.996;2022-08-14T10:33:01;0.50;;;0.20;;
4138;SDS011;2083;51.034;6.996;2022-08-14T10:35:28;0.50;;;0.30;;
4138;SDS011;2083;51.034;6.996;2022-08-14T10:38:03;0.47;;;0.30;;
4138;SDS011;2083;51.034;6.996;2022-08-14T10:40:30;0.53;;;0.53;;
4138;SDS011;2083;51.034;6.996;2022-08-14T10:42:56;0.50;;;0.50;;
4138;SDS011;2083;51.034;6.996;2022-08-14T10:45:23;0.40;;;0.20;;
4138;SDS011;2083;51.034;6.996;2022-08-14T10:47:49;0.50;;;0.50;;
4138;SDS011;2083;51.034;6.996;2022-08-14T10:50:16;0.50;;;0.30;;
4138;SDS011;2083;51.034;6.996;2022-08-14T10:52:55;0.70;;;0.60;;
4138;SDS011;2083;51.034;6.996;2022-08-14T10:55:21;1.30;;;1.20;;
4138;SDS011;2083;51.034;6.996;2022-08-14T11:00:18;0.40;;;0.20;;
4138;SDS011;2083;51.034;6.996;2022-08-14T11:02:54;0.40;;;0.30;;
4138;SDS011;2083;51.034;6.996;2022-08-14T11:05:22;0.50;;;0.30;;
4138;SDS011;2083;51.034;6.996;2022-08-14T11:10:19;0.60;;;0.60;;
4138;SDS011;2083;51.034;6.996;2022-08-14T11:12:46;0.50;;;0.20;;
4138;SDS011;2083;51.034;6.996;2022-08-14T11:15:14;0.40;;;0.30;;
4138;SDS011;2083;51.034;6.996;2022-08-14T11:17:41;0.50;;;0.30;;
4138;SDS011;2083;51.034;6.996;2022-08-14T11:20:07;0.60;;;0.60;;
4138;SDS011;2083;51.034;6.996;2022-08-14T11:22:34;0.60;;;0.47;;
4138;SDS011;2083;51.034;6.996;2022-08-14T11:25:04;0.50;;;0.43;;
4138;SDS011;2083;51.034;6.996;2022-08-14T11:27:34;0.50;;;0.30;;
4138;SDS011;2083;51.034;6.996;2022-08-14T11:30:04;2.63;;;1.40;;
4138;SDS011;2083;51.034;6.996;2022-08-14T11:32:31;0.60;;;0.40;;
4138;SDS011;2083;51.034;6.996;2022-08-14T11:34:57;0.50;;;0.20;;
4138;SDS011;2083;51.034;6.996;2022-08-14T11:37:24;1.33;;;0.50;;
4138;SDS011;2083;51.034;6.996;2022-08-14T11:39:54;0.50;;;0.20;;
4138;SDS011;2083;51.034;6.996;2022-08-14T11:42:24;0.60;;;0.50;;
4138;SDS011;2083;51.034;6.996;2022-08-14T11:44:51;0.60;;;0.50;;
4138;SDS011;2083;51.034;6.996;2022-08-14T11:47:17;0.50;;;0.20;;
4138;SDS011;2083;51.034;6.996;2022-08-14T11:49:47;0.67;;;0.50;;
4138;SDS011;2083;51.034;6.996;2022-08-14T11:52:14;0.50;;;0.30;;
4138;SDS011;2083;51.034;6.996;2022-08-14T11:54:42;0.50;;;0.30;;
4138;SDS011;2083;51.034;6.996;2022-08-14T11:57:14;0.50;;;0.30;;
4138;SDS011;2083;51.034;6.996;2022-08-14T11:59:41;1.23;;;1.13;;
4138;SDS011;2083;51.034;6.996;2022-08-14T12:02:10;0.60;;;0.30;;
4138;SDS011;2083;51.034;6.996;2022-08-14T12:04:46;0.60;;;0.30;;
4138;SDS011;2083;51.034;6.996;2022-08-14T12:07:13;4.33;;;4.00;;
4138;SDS011;2083;51.034;6.996;2022-08-14T12:09:39;3.80;;;3.50;;
4138;SDS011;2083;51.034;6.996;2022-08-14T12:14:58;0.60;;;0.40;;
4138;SDS011;2083;51.034;6.996;2022-08-14T12:17:26;0.60;;;0.30;;
4138;SDS011;2083;51.034;6.996;2022-08-14T12:19:56;0.60;;;0.30;;
4138;SDS011;2083;51.034;6.996;2022-08-14T12:22:41;1.10;;;0.73;;
4138;SDS011;2083;51.034;6.996;2022-08-14T12:25:12;0.60;;;0.40;;
4138;SDS011;2083;51.034;6.996;2022-08-14T12:27:39;0.67;;;0.50;;
4138;SDS011;2083;51.034;6.996;2022-08-14T12:30:06;0.80;;;0.80;;
4138;SDS011;2083;51.034;6.996;2022-08-14T12:32:42;0.70;;;0.50;;
4138;SDS011;2083;51.034;6.996;2022-08-14T12:35:11;0.70;;;0.60;;
4138;SDS011;2083;51.034;6.996;2022-08-14T12:37:37;2.03;;;1.83;;
4138;SDS011;2083;51.034;6.996;2022-08-14T12:40:10;1.67;;;1.57;;
4138;SDS011;2083;51.034;6.996;2022-08-14T12:42:37;0.93;;;0.93;;
4138;SDS011;2083;51.034;6.996;2022-08-14T12:45:04;0.60;;;0.30;;
4138;SDS011;2083;51.034;6.996;2022-08-14T12:47:31;0.83;;;0.83;;
4138;SDS011;2083;51.034;6.996;2022-08-14T12:49:57;1.63;;;1.37;;
4138;SDS011;2083;51.034;6.996;2022-08-14T12:52:28;0.60;;;0.33;;
4138;SDS011;2083;51.034;6.996;2022-08-14T12:55:05;0.70;;;0.60;;
4138;SDS011;2083;51.034;6.996;2022-08-14T12:57:41;0.60;;;0.30;;
4138;SDS011;2083;51.034;6.996;2022-08-14T13:00:09;0.60;;;0.30;;
4138;SDS011;2083;51.034;6.996;2022-08-14T13:02:37;0.60;;;0.30;;
4138;SDS011;2083;51.034;6.996;2022-08-14T13:05:04;0.77;;;0.77;;
4138;SDS011;2083;51.034;6.996;2022-08-14T13:07:31;0.70;;;0.50;;
4138;SDS011;2083;51.034;6.996;2022-08-14T13:09:57;0.70;;;0.60;;
4138;SDS011;2083;51.034;6.996;2022-08-14T13:12:23;0.83;;;0.83;;
4138;SDS011;2083;51.034;6.996;2022-08-14T13:14:51;0.60;;;0.30;;
4138;SDS011;2083;51.034;6.996;2022-08-14T13:17:17;0.70;;;0.57;;
4138;SDS011;2083;51.034;6.996;2022-08-14T13:19:44;0.60;;;0.30;;
4138;SDS011;2083;51.034;6.996;2022-08-14T13:22:11;1.43;;;0.90;;
4138;SDS011;2083;51.034;6.996;2022-08-14T13:24:37;1.37;;;1.27;;
4138;SDS011;2083;51.034;6.996;2022-08-14T13:27:03;0.90;;;0.90;;
4138;SDS011;2083;51.034;6.996;2022-08-14T13:29:31;0.60;;;0.30;;
4138;SDS011;2083;51.034;6.996;2022-08-14T13:32:02;0.60;;;0.30;;
4138;SDS011;2083;51.034;6.996;2022-08-14T13:34:29;4.57;;;0.90;;
4138;SDS011;2083;51.034;6.996;2022-08-14T13:36:55;0.60;;;0.30;;
4138;SDS011;2083;51.034;6.996;2022-08-14T13:39:22;0.63;;;0.47;;
4138;SDS011;2083;51.034;6.996;2022-08-14T13:41:49;0.60;;;0.30;;
4138;SDS011;2083;51.034;6.996;2022-08-14T13:44:16;1.53;;;1.43;;
4138;SDS011;2083;51.034;6.996;2022-08-14T13:46:47;0.60;;;0.30;;
4138;SDS011;2083;51.034;6.996;2022-08-14T13:49:13;1.00;;;0.80;;
4138;SDS011;2083;51.034;6.996;2022-08-14T13:51:45;0.60;;;0.37;;
4138;SDS011;2083;51.034;6.996;2022-08-14T13:54:14;0.60;;;0.30;;
4138;SDS011;2083;51.034;6.996;2022-08-14T13:56:41;0.60;;;0.40;;
4138;SDS011;2083;51.034;6.996;2022-08-14T13:59:07;1.43;;;1.33;;
4138;SDS011;2083;51.034;6.996;2022-08-14T14:01:35;0.70;;;0.60;;
4138;SDS011;2083;51.034;6.996;2022-08-14T14:04:02;0.60;;;0.30;;
4138;SDS011;2083;51.034;6.996;2022-08-14T14:06:28;0.83;;;0.50;;
4138;SDS011;2083;51.034;6.996;2022-08-14T14:08:56;1.07;;;0.70;;
4138;SDS011;2083;51.034;6.996;2022-08-14T14:11:22;0.60;;;0.30;;
4138;SDS011;2083;51.034;6.996;2022-08-14T14:13:52;0.70;;;0.50;;
4138;SDS011;2083;51.034;6.996;2022-08-14T14:16:18;0.60;;;0.30;;
4138;SDS011;2083;51.034;6.996;2022-08-14T14:18:45;0.70;;;0.57;;
4138;SDS011;2083;51.034;6.996;2022-08-14T14:21:18;0.60;;;0.37;;
4138;SDS011;2083;51.034;6.996;2022-08-14T14:23:44;1.07;;;1.07;;
4138;SDS011;2083;51.034;6.996;2022-08-14T14:26:14;0.60;;;0.30;;
4138;SDS011;2083;51.034;6.996;2022-08-14T14:28:40;0.60;;;0.30;;
4138;SDS011;2083;51.034;6.996;2022-08-14T14:31:08;0.60;;;0.30;;
4138;SDS011;2083;51.034;6.996;2022-08-14T14:33:35;0.60;;;0.30;;
4138;SDS011;2083;51.034;6.996;2022-08-14T14:36:06;2.13;;;2.03;;
4138;SDS011;2083;51.034;6.996;2022-08-14T14:38:32;0.90;;;0.90;;
4138;SDS011;2083;51.034;6.996;2022-08-14T14:40:58;0.60;;;0.40;;
4138;SDS011;2083;51.034;6.996;2022-08-14T14:43:26;0.80;;;0.80;;
4138;SDS011;2083;51.034;6.996;2022-08-14T14:45:53;0.60;;;0.30;;
4138;SDS011;2083;51.034;6.996;2022-08-14T14:48:19;0.73;;;0.50;;
4138;SDS011;2083;51.034;6.996;2022-08-14T14:50:47;0.60;;;0.30;;
4138;SDS011;2083;51.034;6.996;2022-08-14T14:53:16;0.60;;;0.30;;
4138;SDS011;2083;51.034;6.996;2022-08-14T14:55:43;0.70;;;0.60;;
4138;SDS011;2083;51.034;6.996;2022-08-14T14:58:09;0.93;;;0.83;;
4138;SDS011;2083;51.034;6.996;2022-08-14T15:00:36;1.20;;;1.10;;
4138;SDS011;2083;51.034;6.996;2022-08-14T15:03:02;0.80;;;0.50;;
4138;SDS011;2083;51.034;6.996;2022-08-14T15:05:28;0.60;;;0.30;;
4138;SDS011;2083;51.034;6.996;2022-08-14T15:07:54;0.60;;;0.40;;
4138;SDS011;2083;51.034;6.996;2022-08-14T15:10:20;0.60;;;0.30;;
4138;SDS011;2083;51.034;6.996;2022-08-14T15:12:47;0.60;;;0.30;;
4138;SDS011;2083;51.034;6.996;2022-08-14T15:15:13;0.60;;;0.30;;
4138;SDS011;2083;51.034;6.996;2022-08-14T15:17:39;0.60;;;0.30;;
4138;SDS011;2083;51.034;6.996;2022-08-14T15:20:10;0.73;;;0.73;;
4138;SDS011;2083;51.034;6.996;2022-08-14T15:22:51;0.70;;;0.40;;
4138;SDS011;2083;51.034;6.996;2022-08-14T15:25:17;0.60;;;0.40;;
4138;SDS011;2083;51.034;6.996;2022-08-14T15:27:43;0.60;;;0.30;;
4138;SDS011;2083;51.034;6.996;2022-08-14T15:30:10;1.10;;;0.93;;
4138;SDS011;2083;51.034;6.996;2022-08-14T15:32:36;1.00;;;0.77;;
4138;SDS011;2083;51.034;6.996;2022-08-14T15:35:03;0.70;;;0.50;;